Terminal Aerodrome Forecast
Issued by NWS

Home | Current Version | Previous Version | Text Only | Print | Product List | Glossary On
Versions: 1 2 3 4 5 6 7 8 9 10 11 12
000
FTUS45 KRIW 210500
TAFBPI
TAF
KBPI 210522Z 2106/2206 VRB06KT P6SM SCT060 BKN130
     FM211600 25012KT P6SM VCSH SCT045 BKN080
     FM211800 25015G25KT P6SM VCSH SCT030 BKN050
     FM212300 31013KT P6SM SCT050 BKN080
     FM220300 34007KT P6SM SCT080=

USA.gov is the U.S. government's official web portal to all federal, state and local government web resources and services.